GTI8826 ETAR-OTBH
Flight info
| Callsign | GTI8826 |
|---|---|
| Flight time | N/A |
| Altitude | 9000 |
| Route | RINEX Z12 UMDAS/N0488F310 Z12 SULUS Z650 VEMUT DCT PEPIK DCT BERVA DCT ERGOM DCT TEGRI DCT OSTOV DCT NIKTI DCT PAXIS/N0489F330 L607 NABSI P557 OBRAN L321 REXUM M872 BDB Y214 RAPMA DCT LADBO T142 LAEEB DCT DOH |
| Aircraft | B77L/H-SDE1E2E3FGHIJ2J3J4J5M1RWXY/LB1D1 |
Departure
| Time | 2026-04-28 15:47 |
|---|---|
| Airport | Ramstein Air Base (ETAR) |
Arrival
| Time | N/A |
|---|---|
| Airport | Al Udeid Air Base (OTBH) |
| Time | Latitude | Longitude | Altitude | Speed | Heading |
|---|---|---|---|---|---|
| 2026-04-28 15:21 | 49.44258 | 7.59494 | 795 ft | 0 kts | 2° |
| 2026-04-28 15:30 | 49.44244 | 7.59493 | 795 ft | 2 kts | 2° |
| 2026-04-28 15:30 | 49.44227 | 7.59492 | 795 ft | 2 kts | 2° |
| 2026-04-28 15:30 | 49.44211 | 7.59490 | 795 ft | 2 kts | 17° |
| 2026-04-28 15:31 | 49.44197 | 7.59478 | 795 ft | 2 kts | 41° |
| 2026-04-28 15:31 | 49.44187 | 7.59459 | 795 ft | 2 kts | 65° |
| 2026-04-28 15:31 | 49.44183 | 7.59441 | 795 ft | 1 kts | 82° |
| 2026-04-28 15:31 | 49.44186 | 7.59464 | 795 ft | 3 kts | 82° |
| 2026-04-28 15:32 | 49.44189 | 7.59496 | 795 ft | 3 kts | 82° |
| 2026-04-28 15:32 | 49.44191 | 7.59516 | 795 ft | 3 kts | 82° |
| 2026-04-28 15:32 | 49.44195 | 7.59557 | 795 ft | 3 kts | 81° |
| 2026-04-28 15:32 | 49.44195 | 7.59565 | 795 ft | 0 kts | 81° |
| 2026-04-28 15:35 | 49.44195 | 7.59566 | 795 ft | 0 kts | 81° |
| 2026-04-28 15:38 | 49.44196 | 7.59566 | 795 ft | 0 kts | 81° |
| 2026-04-28 15:38 | 49.44196 | 7.59570 | 795 ft | 1 kts | 84° |
| 2026-04-28 15:38 | 49.44192 | 7.59587 | 795 ft | 3 kts | 121° |
| 2026-04-28 15:38 | 49.44170 | 7.59597 | 795 ft | 5 kts | 197° |
| 2026-04-28 15:39 | 49.44140 | 7.59560 | 795 ft | 6 kts | 209° |
| 2026-04-28 15:39 | 49.44095 | 7.59566 | 795 ft | 7 kts | 160° |
| 2026-04-28 15:39 | 49.44048 | 7.59598 | 795 ft | 8 kts | 151° |
| 2026-04-28 15:39 | 49.44002 | 7.59643 | 795 ft | 8 kts | 147° |
| 2026-04-28 15:40 | 49.43950 | 7.59689 | 795 ft | 9 kts | 154° |
| 2026-04-28 15:40 | 49.43892 | 7.59731 | 795 ft | 9 kts | 155° |
| 2026-04-28 15:40 | 49.43831 | 7.59775 | 795 ft | 10 kts | 155° |
| 2026-04-28 15:40 | 49.43768 | 7.59824 | 795 ft | 10 kts | 152° |
| 2026-04-28 15:41 | 49.43706 | 7.59856 | 795 ft | 10 kts | 205° |
| 2026-04-28 15:41 | 49.43683 | 7.59764 | 795 ft | 9 kts | 263° |
| 2026-04-28 15:41 | 49.43675 | 7.59667 | 795 ft | 9 kts | 264° |
| 2026-04-28 15:41 | 49.43670 | 7.59573 | 795 ft | 9 kts | 265° |
| 2026-04-28 15:42 | 49.43666 | 7.59483 | 795 ft | 8 kts | 265° |
| 2026-04-28 15:42 | 49.43662 | 7.59398 | 795 ft | 8 kts | 266° |
| 2026-04-28 15:42 | 49.43659 | 7.59314 | 795 ft | 8 kts | 267° |
| 2026-04-28 15:42 | 49.43655 | 7.59220 | 795 ft | 10 kts | 267° |
| 2026-04-28 15:43 | 49.43652 | 7.59109 | 795 ft | 11 kts | 267° |
| 2026-04-28 15:43 | 49.43648 | 7.58981 | 795 ft | 13 kts | 267° |
| 2026-04-28 15:43 | 49.43641 | 7.58835 | 795 ft | 15 kts | 265° |
| 2026-04-28 15:43 | 49.43632 | 7.58668 | 795 ft | 17 kts | 265° |
| 2026-04-28 15:44 | 49.43624 | 7.58492 | 795 ft | 16 kts | 267° |
| 2026-04-28 15:44 | 49.43617 | 7.58326 | 795 ft | 15 kts | 256° |
| 2026-04-28 15:44 | 49.43586 | 7.58222 | 795 ft | 6 kts | 261° |
| 2026-04-28 15:44 | 49.43598 | 7.58192 | 795 ft | 2 kts | 7° |
| 2026-04-28 15:45 | 49.43607 | 7.58203 | 795 ft | 2 kts | 59° |
| 2026-04-28 15:45 | 49.43614 | 7.58243 | 795 ft | 6 kts | 80° |
| 2026-04-28 15:45 | 49.43616 | 7.58258 | 795 ft | 0 kts | 82° |
| 2026-04-28 15:46 | 49.43616 | 7.58262 | 795 ft | 5 kts | 82° |
| 2026-04-28 15:46 | 49.43637 | 7.58697 | 795 ft | 77 kts | 86° |
| 2026-04-28 15:46 | 49.43684 | 7.59877 | 795 ft | 143 kts | 86° |
| 2026-04-28 15:46 | 49.43761 | 7.61684 | 847 ft | 189 kts | 85° |
| 2026-04-28 15:47 | 49.43849 | 7.63730 | 1540 ft | 191 kts | 86° |
| 2026-04-28 15:47 | 49.43896 | 7.65728 | 2456 ft | 187 kts | 86° |
| 2026-04-28 15:47 | 49.44044 | 7.67764 | 2855 ft | 199 kts | 70° |
| 2026-04-28 15:47 | 49.44905 | 7.69518 | 3120 ft | 219 kts | 40° |
| 2026-04-28 15:48 | 49.46323 | 7.70606 | 3499 ft | 239 kts | 25° |
| 2026-04-28 15:48 | 49.47829 | 7.71835 | 3875 ft | 253 kts | 42° |
| 2026-04-28 15:48 | 49.48992 | 7.73841 | 4675 ft | 250 kts | 54° |
| 2026-04-28 15:48 | 49.50000 | 7.76042 | 5473 ft | 254 kts | 57° |
| 2026-04-28 15:49 | 49.50934 | 7.78357 | 6212 ft | 255 kts | 60° |
| 2026-04-28 15:49 | 49.51826 | 7.80745 | 6932 ft | 260 kts | 62° |
| 2026-04-28 15:49 | 49.52729 | 7.83199 | 7613 ft | 266 kts | 62° |
| 2026-04-28 15:49 | 49.53658 | 7.85677 | 8368 ft | 268 kts | 61° |
| 2026-04-28 15:50 | 49.54555 | 7.88207 | 9046 ft | 270 kts | 69° |
| 2026-04-28 15:50 | 49.54881 | 7.91059 | 9602 ft | 276 kts | 94° |
| 2026-04-28 15:50 | 49.54317 | 7.93881 | 10186 ft | 282 kts | 119° |
| 2026-04-28 15:50 | 49.53002 | 7.96184 | 10681 ft | 293 kts | 137° |
| 2026-04-28 15:51 | 49.51282 | 7.98028 | 11035 ft | 310 kts | 147° |
| 2026-04-28 15:51 | 49.49331 | 7.99647 | 11332 ft | 328 kts | 151° |
| 2026-04-28 15:51 | 49.47347 | 8.01548 | 11516 ft | 346 kts | 138° |
| 2026-04-28 15:51 | 49.45811 | 8.04475 | 11799 ft | 361 kts | 118° |
| 2026-04-28 15:52 | 49.44814 | 8.08070 | 12219 ft | 371 kts | 111° |
| 2026-04-28 15:52 | 49.43917 | 8.11847 | 12728 ft | 380 kts | 108° |
| 2026-04-28 15:52 | 49.43207 | 8.15785 | 13395 ft | 385 kts | 103° |
| 2026-04-28 15:52 | 49.42599 | 8.19817 | 14013 ft | 391 kts | 104° |
| 2026-04-28 15:53 | 49.41844 | 8.23846 | 14647 ft | 396 kts | 107° |
| 2026-04-28 15:53 | 49.40949 | 8.27886 | 15236 ft | 402 kts | 109° |
| 2026-04-28 15:53 | 49.39993 | 8.31941 | 15868 ft | 406 kts | 110° |
| 2026-04-28 15:53 | 49.39032 | 8.36037 | 16486 ft | 410 kts | 109° |